Time;durP1;ratioP1;P1;durP2;ratioP2;P2;SDS_P1;SDS_P2;PMS_P1;PMS_P2;Temp;Humidity;BMP_temperature;BMP_pressure;BME280_temperature;BME280_humidity;BME280_pressure;Samples;Min_cycle;Max_cycle;Signal;HPM_P1;HPM_P2
2022/09/13 00:02:00;;;;;;;6.85;3.70;;;;;;;15.87;62.38;94479.81;4200201;28;20551;-64
2022/09/13 00:04:03;;;;;;;6.00;3.90;;;;;;;15.87;62.40;94483.25;4203059;28;20041;-63
2022/09/13 00:06:15;;;;;;;4.72;3.60;;;;;;;15.94;62.41;94478.81;4196551;28;20048;-64
2022/09/13 00:08:17;;;;;;;7.68;3.88;;;;;;;16.00;62.25;94479.03;4200147;28;20123;-63
2022/09/13 00:10:19;;;;;;;4.63;4.00;;;;;;;15.98;62.09;94481.88;4202567;28;20135;-64
2022/09/13 00:12:20;;;;;;;8.18;4.20;;;;;;;15.99;62.27;94480.06;4207608;28;20086;-64
2022/09/13 00:14:25;;;;;;;6.22;4.00;;;;;;;16.03;62.01;94476.81;4211390;28;20158;-64
2022/09/13 00:16:27;;;;;;;8.27;3.92;;;;;;;16.05;62.11;94474.00;4211789;28;20070;-59
2022/09/13 00:18:29;;;;;;;13.55;5.00;;;;;;;16.04;62.13;94467.88;4210061;28;20056;-59
2022/09/13 00:20:31;;;;;;;5.90;3.97;;;;;;;16.13;61.93;94468.50;4200464;28;20127;-58
2022/09/13 00:22:33;;;;;;;8.40;4.10;;;;;;;16.07;61.99;94464.84;4195416;28;20466;-58
2022/09/13 00:24:34;;;;;;;9.68;4.80;;;;;;;16.08;62.02;94463.81;4212046;28;20107;-58
2022/09/13 00:26:36;;;;;;;5.35;3.80;;;;;;;16.09;62.40;94459.34;4211718;28;20335;-58
2022/09/13 00:28:38;;;;;;;4.70;3.58;;;;;;;16.03;62.38;94454.88;4214847;28;20052;-57
2022/09/13 00:30:40;;;;;;;6.93;3.83;;;;;;;16.12;62.15;94453.69;4214212;28;20058;-57
2022/09/13 00:32:41;;;;;;;5.68;3.95;;;;;;;16.14;62.05;94465.69;4214653;28;20075;-59
2022/09/13 00:34:43;;;;;;;5.20;4.18;;;;;;;16.15;62.08;94453.28;4210120;28;20052;-58
2022/09/13 00:36:45;;;;;;;5.07;4.35;;;;;;;16.12;62.24;94453.69;4214868;28;20280;-58
2022/09/13 00:38:47;;;;;;;4.32;3.60;;;;;;;16.07;62.32;94445.56;4208726;28;20480;-58
2022/09/13 00:40:49;;;;;;;5.80;4.03;;;;;;;16.05;62.48;94451.03;4195838;28;20125;-57
2022/09/13 00:42:50;;;;;;;6.13;3.80;;;;;;;16.10;62.33;94451.22;4207375;28;20087;-58
2022/09/13 00:45:07;;;;;;;5.20;3.90;;;;;;;16.20;62.15;94445.56;4201815;28;20338;-58
2022/09/13 00:47:09;;;;;;;7.30;3.97;;;;;;;16.24;61.92;94444.16;4201663;28;20257;-59
2022/09/13 00:49:17;;;;;;;8.27;3.95;;;;;;;16.27;62.02;94443.75;4213376;28;20490;-59
2022/09/13 00:51:19;;;;;;;6.10;3.83;;;;;;;16.23;61.91;94445.16;4212883;28;20052;-57
2022/09/13 00:53:25;;;;;;;5.43;3.72;;;;;;;16.28;61.86;94450.69;4213275;28;20066;-57
2022/09/13 00:55:31;;;;;;;5.38;3.78;;;;;;;16.28;61.82;94450.69;4211314;28;20080;-57
2022/09/13 00:57:34;;;;;;;4.53;3.72;;;;;;;16.31;61.71;94439.69;4213507;28;20078;-59
2022/09/13 00:59:46;;;;;;;5.15;3.78;;;;;;;16.29;61.68;94440.91;4212847;28;20047;-59
2022/09/13 01:01:51;;;;;;;5.75;3.97;;;;;;;16.26;61.75;94449.22;4213352;28;20139;-58
2022/09/13 01:03:53;;;;;;;7.15;4.00;;;;;;;16.28;61.95;94447.19;4196383;28;20048;-59
2022/09/13 01:05:59;;;;;;;5.00;3.85;;;;;;;16.14;61.80;94441.91;4212990;28;20076;-58
2022/09/13 01:08:01;;;;;;;5.75;4.30;;;;;;;16.15;61.97;94438.25;4212389;28;20048;-58
2022/09/13 01:10:05;;;;;;;5.00;3.83;;;;;;;16.11;61.98;94447.59;4211106;28;20160;-58
2022/09/13 01:12:09;;;;;;;5.25;3.92;;;;;;;16.14;62.20;94446.38;4208388;28;20074;-59
2022/09/13 01:14:11;;;;;;;5.30;4.07;;;;;;;16.16;61.95;94449.63;4212550;28;20532;-59
2022/09/13 01:16:12;;;;;;;6.15;4.07;;;;;;;16.16;61.88;94445.16;4202513;28;20132;-64
2022/09/13 01:18:15;;;;;;;4.97;3.95;;;;;;;16.14;61.98;94444.53;4200927;28;20094;-63
2022/09/13 01:20:17;;;;;;;7.80;3.90;;;;;;;16.17;61.83;94436.22;4200464;28;20048;-58
2022/09/13 01:22:34;;;;;;;4.40;3.63;;;;;;;16.21;61.84;94436.63;4211212;28;20086;-59
2022/09/13 01:24:54;;;;;;;5.18;4.10;;;;;;;16.26;61.69;94433.38;4203827;28;20039;-59
2022/09/13 01:27:19;;;;;;;6.30;4.32;;;;;;;16.26;61.74;94428.09;4204170;28;20090;-59
2022/09/13 01:29:36;;;;;;;4.60;4.05;;;;;;;16.29;61.72;94430.34;4200181;28;20443;-65
2022/09/13 01:32:20;;;;;;;4.95;3.97;;;;;;;16.35;61.41;94437.47;4199593;28;20071;-64
2022/09/13 01:34:36;;;;;;;9.07;4.30;;;;;;;16.22;61.66;94435.63;4192047;28;20052;-65
2022/09/13 01:36:55;;;;;;;4.38;3.80;;;;;;;16.25;61.85;94429.13;4199424;28;20048;-64
2022/09/13 01:39:18;;;;;;;7.63;4.03;;;;;;;16.29;61.66;94428.50;4211446;28;20058;-63
2022/09/13 01:41:52;;;;;;;6.93;4.40;;;;;;;16.30;61.54;94422.19;4200803;28;20044;-64
2022/09/13 01:44:07;;;;;;;6.63;4.18;;;;;;;16.36;61.56;94423.22;4204206;28;20097;-65
2022/09/13 01:46:17;;;;;;;7.28;4.28;;;;;;;16.35;61.70;94425.06;4213705;28;20055;-65
2022/09/13 01:48:24;;;;;;;5.13;4.00;;;;;;;16.34;61.52;94426.06;4219320;28;20047;-65
2022/09/13 01:50:38;;;;;;;5.28;4.35;;;;;;;16.33;61.58;94427.09;4202891;28;20128;-64
2022/09/13 01:52:59;;;;;;;6.57;4.07;;;;;;;16.33;61.75;94435.03;4196604;28;20080;-63
2022/09/13 01:55:13;;;;;;;6.57;3.92;;;;;;;16.31;61.67;94430.97;4200044;28;20051;-64
2022/09/13 01:57:33;;;;;;;4.55;3.85;;;;;;;16.29;61.78;94425.06;4201889;28;20496;-65
2022/09/13 01:59:46;;;;;;;6.63;3.92;;;;;;;16.22;62.00;94422.41;4196462;28;20496;-63
2022/09/13 02:02:02;;;;;;;6.70;5.15;;;;;;;16.24;61.95;94425.66;4204109;28;20083;-65
2022/09/13 02:04:20;;;;;;;5.55;4.00;;;;;;;16.25;61.78;94427.28;4214313;28;20063;-64
2022/09/13 02:06:26;;;;;;;4.85;3.67;;;;;;;16.28;61.82;94416.31;4213542;28;20048;-64
2022/09/13 02:08:44;;;;;;;4.97;3.63;;;;;;;16.36;61.50;94421.38;4205936;28;20052;-64
2022/09/13 02:10:50;;;;;;;6.50;4.03;;;;;;;16.41;61.50;94420.78;4196509;28;20174;-63
2022/09/13 02:12:52;;;;;;;5.32;3.97;;;;;;;16.45;61.11;94421.22;4210496;28;20071;-64
2022/09/13 02:15:02;;;;;;;6.28;3.97;;;;;;;16.47;60.94;94419.97;4202479;28;20066;-58
2022/09/13 02:17:11;;;;;;;5.28;3.85;;;;;;;16.41;61.12;94419.97;4206393;28;20721;-59
2022/09/13 02:19:17;;;;;;;6.90;3.72;;;;;;;16.31;61.40;94426.47;4201329;28;20085;-60
2022/09/13 02:21:23;;;;;;;5.57;4.10;;;;;;;16.31;61.50;94423.84;4207652;28;20059;-58
2022/09/13 02:23:49;;;;;;;6.93;4.00;;;;;;;16.33;61.45;94419.16;4206134;28;20615;-58
2022/09/13 02:25:52;;;;;;;7.97;4.15;;;;;;;16.27;61.57;94419.97;4201093;28;20143;-57
2022/09/13 02:27:58;;;;;;;6.75;4.18;;;;;;;16.28;61.57;94423.41;4197749;28;20131;-57
2022/09/13 02:30:04;;;;;;;8.88;4.28;;;;;;;16.24;61.58;94415.09;4206627;28;20075;-60
2022/09/13 02:32:29;;;;;;;4.72;3.47;;;;;;;16.26;61.56;94423.63;4200441;28;20131;-60
2022/09/13 02:34:39;;;;;;;7.28;3.75;;;;;;;16.26;61.57;94425.44;4197327;28;20084;-59
2022/09/13 02:36:42;;;;;;;5.18;4.10;;;;;;;16.21;61.69;94425.25;4197706;28;20068;-59
2022/09/13 02:38:49;;;;;;;5.20;3.78;;;;;;;16.16;61.57;94423.19;4200573;28;20135;-59
2022/09/13 02:41:01;;;;;;;5.88;4.25;;;;;;;16.08;61.87;94423.38;4211880;28;20044;-60
2022/09/13 02:43:17;;;;;;;6.78;4.25;;;;;;;16.07;62.08;94419.94;4201802;28;20488;-60
2022/09/13 02:45:20;;;;;;;5.70;4.25;;;;;;;16.12;61.91;94429.91;4209526;28;20098;-58
2022/09/13 02:47:39;;;;;;;6.25;4.18;;;;;;;16.09;61.80;94432.91;4211537;28;20079;-59
2022/09/13 02:50:08;;;;;;;5.70;3.88;;;;;;;16.07;61.93;94421.78;4201425;28;20405;-58
2022/09/13 02:52:13;;;;;;;8.43;3.88;;;;;;;15.97;62.22;94433.50;4170576;28;20056;-58
2022/09/13 02:54:36;;;;;;;4.72;3.63;;;;;;;15.96;62.39;94423.97;4207387;28;20056;-59
2022/09/13 02:56:38;;;;;;;5.78;4.28;;;;;;;15.94;62.31;94428.63;4201461;28;20051;-58
2022/09/13 02:58:55;;;;;;;5.68;4.13;;;;;;;15.90;62.31;94423.94;4207249;28;20040;-57
2022/09/13 03:00:57;;;;;;;8.35;4.07;;;;;;;15.87;62.30;94427.78;4200810;28;20052;-58
2022/09/13 03:03:02;;;;;;;4.18;3.38;;;;;;;15.87;62.40;94422.50;4201093;28;20048;-59
2022/09/13 03:05:04;;;;;;;4.85;3.88;;;;;;;15.87;62.58;94425.13;4197951;28;20048;-59
2022/09/13 03:07:10;;;;;;;6.90;4.05;;;;;;;15.86;62.44;94422.72;4207152;28;20158;-57
2022/09/13 03:09:12;;;;;;;7.25;4.22;;;;;;;15.84;62.35;94427.38;4212324;28;20109;-59
2022/09/13 03:11:33;;;;;;;5.15;3.85;;;;;;;15.77;62.57;94428.16;4199521;28;20048;-58
2022/09/13 03:14:09;;;;;;;5.68;3.25;;;;;;;15.84;62.41;94424.75;4202150;28;20060;-58
2022/09/13 03:16:29;;;;;;;6.80;4.00;;;;;;;15.85;62.36;94421.91;4175380;28;20084;-58
2022/09/13 03:19:10;;;;;;;6.00;3.67;;;;;;;15.86;62.27;94420.88;4195701;28;20541;-59
2022/09/13 03:21:33;;;;;;;4.32;3.28;;;;;;;15.81;62.26;94415.41;4186571;28;20084;-59
2022/09/13 03:23:43;;;;;;;4.15;3.35;;;;;;;15.80;62.18;94418.22;4203840;28;20056;-57
2022/09/13 03:26:10;;;;;;;3.58;3.22;;;;;;;15.81;62.00;94419.84;4198226;28;20579;-58
2022/09/13 03:28:20;;;;;;;4.63;3.35;;;;;;;15.72;62.31;94416.56;4196413;28;20121;-58
2022/09/13 03:30:22;;;;;;;8.18;3.70;;;;;;;15.74;62.21;94419.81;4196224;28;20152;-59
2022/09/13 03:32:47;;;;;;;6.75;3.75;;;;;;;15.80;62.38;94424.31;4208786;28;20047;-58
2022/09/13 03:34:55;;;;;;;5.38;3.50;;;;;;;15.86;62.08;94418.25;4204277;28;20087;-59
2022/09/13 03:37:04;;;;;;;5.15;4.20;;;;;;;15.91;62.05;94423.72;4206736;28;20566;-58
2022/09/13 03:39:41;;;;;;;4.05;3.55;;;;;;;15.97;61.73;94419.50;4210171;28;20123;-57
2022/09/13 03:41:47;;;;;;;5.57;3.58;;;;;;;15.99;61.49;94430.69;4205198;28;20500;-64
2022/09/13 03:43:55;;;;;;;6.78;3.25;;;;;;;16.04;61.64;94430.88;4211382;28;20144;-65
2022/09/13 03:45:59;;;;;;;4.35;3.42;;;;;;;16.07;61.32;94424.41;4211384;28;20069;-65
2022/09/13 03:48:03;;;;;;;6.10;3.40;;;;;;;16.05;61.07;94427.25;4210406;28;20051;-58
2022/09/13 03:50:06;;;;;;;7.68;3.90;;;;;;;16.10;60.90;94424.00;4210185;28;20048;-58
2022/09/13 03:52:08;;;;;;;4.82;4.03;;;;;;;16.13;60.68;94426.22;4211614;28;20488;-58
2022/09/13 03:54:17;;;;;;;12.27;4.32;;;;;;;16.10;60.71;94426.63;4211432;28;20117;-58
2022/09/13 03:56:19;;;;;;;4.90;3.38;;;;;;;16.10;60.82;94424.00;4208590;28;20048;-59
2022/09/13 03:58:21;;;;;;;5.22;3.25;;;;;;;16.10;60.77;94424.81;4201597;28;20048;-57
2022/09/13 04:00:23;;;;;;;4.72;3.60;;;;;;;16.07;60.64;94421.78;4200519;28;20052;-58
2022/09/13 04:02:25;;;;;;;5.13;3.60;;;;;;;16.03;60.68;94429.28;4208409;28;20143;-57
2022/09/13 04:04:27;;;;;;;5.25;3.60;;;;;;;16.01;60.53;94430.50;4194984;28;20102;-59
2022/09/13 04:06:29;;;;;;;6.07;3.83;;;;;;;16.00;60.80;94431.47;4194703;28;20155;-60
2022/09/13 04:08:31;;;;;;;6.40;3.75;;;;;;;15.96;60.63;94429.25;4205870;28;20139;-59
2022/09/13 04:10:35;;;;;;;5.22;3.65;;;;;;;15.91;60.40;94429.00;4209346;28;20076;-59
2022/09/13 04:12:36;;;;;;;6.32;3.95;;;;;;;15.89;60.58;94435.50;4211500;28;20433;-62
2022/09/13 04:14:39;;;;;;;4.07;3.28;;;;;;;15.89;60.56;94433.69;4211095;28;20052;-59
2022/09/13 04:16:40;;;;;;;5.43;3.25;;;;;;;15.89;60.62;94428.41;4211606;28;20047;-59
2022/09/13 04:18:42;;;;;;;5.60;3.40;;;;;;;15.90;60.38;94430.03;4211600;28;20583;-59
2022/09/13 04:20:52;;;;;;;5.88;3.42;;;;;;;15.94;60.36;94435.75;4210549;28;20118;-59
2022/09/13 04:22:56;;;;;;;7.15;3.95;;;;;;;15.95;60.48;94424.97;4199054;28;20052;-58
2022/09/13 04:24:58;;;;;;;6.20;3.28;;;;;;;15.85;60.68;94440.41;4209611;28;20044;-57
2022/09/13 04:27:03;;;;;;;7.03;3.70;;;;;;;15.86;60.51;94434.09;4211293;28;20046;-61
2022/09/13 04:29:05;;;;;;;6.45;3.70;;;;;;;15.91;60.22;94439.59;4210899;28;20055;-58
2022/09/13 04:31:07;;;;;;;5.40;3.30;;;;;;;15.95;60.03;94438.19;4211057;28;20040;-59
2022/09/13 04:33:08;;;;;;;6.20;3.47;;;;;;;15.97;60.10;94441.44;4211410;28;20392;-58
2022/09/13 04:35:10;;;;;;;5.25;3.63;;;;;;;16.03;60.05;94444.31;4200784;28;20136;-59
2022/09/13 04:37:12;;;;;;;6.60;3.38;;;;;;;16.09;59.68;94440.84;4207327;28;20072;-59
2022/09/13 04:39:14;;;;;;;8.30;3.80;;;;;;;16.16;59.47;94449.63;4210201;28;20048;-58
2022/09/13 04:41:16;;;;;;;4.40;3.35;;;;;;;16.20;59.27;94447.38;4207373;28;20095;-59
2022/09/13 04:43:18;;;;;;;5.53;3.70;;;;;;;16.25;58.97;94451.06;4216386;28;20062;-59
2022/09/13 04:45:19;;;;;;;7.50;4.07;;;;;;;16.28;59.14;94458.63;4222306;28;20106;-59
2022/09/13 04:47:21;;;;;;;6.68;3.58;;;;;;;16.34;58.92;94449.06;4211618;28;20048;-61
2022/09/13 04:49:23;;;;;;;6.28;3.45;;;;;;;16.40;58.73;94453.53;4210966;28;20511;-59
2022/09/13 04:51:25;;;;;;;6.32;3.38;;;;;;;16.45;59.03;94455.56;4210189;28;20050;-58
2022/09/13 04:53:26;;;;;;;5.88;3.40;;;;;;;16.48;58.49;94455.19;4211218;28;20055;-59
2022/09/13 04:55:28;;;;;;;5.63;3.50;;;;;;;16.50;58.35;94461.09;4201071;28;20072;-60
2022/09/13 04:57:30;;;;;;;7.03;3.50;;;;;;;16.57;58.05;94454.78;4194902;28;20195;-59
2022/09/13 04:59:32;;;;;;;8.38;3.97;;;;;;;16.61;58.19;94459.69;4196951;28;20447;-59
2022/09/13 05:01:34;;;;;;;9.05;4.25;;;;;;;16.66;57.92;94460.69;4210995;28;20399;-58
2022/09/13 05:03:37;;;;;;;9.65;4.72;;;;;;;16.61;58.47;94459.69;4211070;28;20055;-62
2022/09/13 05:05:38;;;;;;;9.38;4.35;;;;;;;16.66;58.23;94465.16;4210523;28;20083;-58
2022/09/13 05:07:40;;;;;;;6.93;3.97;;;;;;;16.65;57.83;94467.00;4210430;28;20560;-59
2022/09/13 05:09:41;;;;;;;12.77;3.97;;;;;;;16.72;57.74;94457.25;4209749;28;20123;-60
2022/09/13 05:11:43;;;;;;;8.00;4.53;;;;;;;16.80;57.72;94461.56;4211221;28;20574;-59
2022/09/13 05:13:51;;;;;;;6.72;4.00;;;;;;;16.82;57.63;94456.88;4210788;28;20131;-60
2022/09/13 05:15:57;;;;;;;12.50;4.28;;;;;;;16.87;57.35;94456.25;4212038;28;20554;-61
2022/09/13 05:17:59;;;;;;;5.97;5.07;;;;;;;16.94;57.14;94454.41;4208557;28;20591;-60
2022/09/13 05:20:01;;;;;;;7.43;3.78;;;;;;;17.05;57.11;94453.78;4203652;28;20079;-58
2022/09/13 05:22:03;;;;;;;5.43;3.47;;;;;;;16.98;56.71;94460.94;4213610;28;20087;-59
2022/09/13 05:24:05;;;;;;;6.30;3.25;;;;;;;16.91;56.86;94454.84;4209884;28;20131;-59
2022/09/13 05:26:07;;;;;;;3.95;3.03;;;;;;;16.87;56.80;94461.56;4212311;28;20086;-62
2022/09/13 05:28:08;;;;;;;5.20;3.15;;;;;;;16.77;57.32;94462.72;4212971;28;20108;-62
2022/09/13 05:30:11;;;;;;;5.68;3.35;;;;;;;16.78;57.23;94461.72;4213063;28;20050;-60
2022/09/13 05:32:12;;;;;;;7.78;3.22;;;;;;;16.69;57.36;94456.81;4210066;28;20048;-60
2022/09/13 05:34:16;;;;;;;5.25;3.50;;;;;;;16.74;57.41;94460.50;4212398;28;20063;-60
2022/09/13 05:36:18;;;;;;;5.25;2.70;;;;;;;16.82;56.68;94464.81;4211665;28;20052;-58
2022/09/13 05:38:20;;;;;;;6.93;3.25;;;;;;;16.82;57.16;94463.97;4213239;28;20597;-60
2022/09/13 05:40:22;;;;;;;5.05;3.50;;;;;;;16.82;57.19;94463.97;4210215;28;20083;-62
2022/09/13 05:42:24;;;;;;;3.35;2.63;;;;;;;16.78;56.64;94464.38;4213397;28;20602;-61
2022/09/13 05:44:25;;;;;;;3.90;3.00;;;;;;;16.83;56.73;94471.72;4213860;28;20084;-59
2022/09/13 05:46:27;;;;;;;7.45;2.88;;;;;;;16.73;56.83;94466.78;4213742;28;20127;-59
2022/09/13 05:48:30;;;;;;;3.25;2.75;;;;;;;16.64;56.97;94460.06;4212998;28;20051;-59
2022/09/13 05:50:36;;;;;;;4.28;3.10;;;;;;;16.53;57.28;94471.25;4210739;28;20086;-59
2022/09/13 05:52:58;;;;;;;5.38;3.15;;;;;;;16.55;56.99;94464.75;4209421;28;20058;-59
2022/09/13 05:54:59;;;;;;;4.80;3.08;;;;;;;16.49;57.63;94467.38;4209005;28;20140;-58
2022/09/13 05:57:01;;;;;;;4.30;3.20;;;;;;;16.59;57.41;94475.75;4211777;28;20083;-62
2022/09/13 05:59:03;;;;;;;6.57;2.78;;;;;;;16.70;57.28;94475.13;4207014;28;20054;-61
2022/09/13 06:01:05;;;;;;;4.75;2.83;;;;;;;16.77;56.94;94472.50;4211151;28;20131;-62
2022/09/13 06:03:07;;;;;;;4.40;2.80;;;;;;;16.97;56.34;94470.72;4200451;28;20397;-60
2022/09/13 06:05:09;;;;;;;4.60;3.00;;;;;;;16.90;56.49;94471.72;4211074;28;20067;-60
2022/09/13 06:07:11;;;;;;;4.93;3.13;;;;;;;16.95;56.21;94458.69;4213601;28;20043;-61
2022/09/13 06:09:13;;;;;;;4.75;2.90;;;;;;;17.01;56.01;94468.44;4207396;28;20194;-59
2022/09/13 06:11:14;;;;;;;5.55;2.67;;;;;;;17.04;56.35;94467.25;4208951;28;20076;-62
2022/09/13 06:13:16;;;;;;;3.28;2.65;;;;;;;17.14;56.07;94471.13;4212064;28;20564;-61
2022/09/13 06:15:18;;;;;;;4.10;3.03;;;;;;;17.19;55.68;94476.59;4212572;28;20063;-61
2022/09/13 06:17:19;;;;;;;4.10;3.00;;;;;;;17.17;55.82;94473.34;4212866;28;20126;-63
2022/09/13 06:19:21;;;;;;;6.05;3.20;;;;;;;17.22;55.73;94477.22;4212566;28;20095;-60
2022/09/13 06:21:23;;;;;;;7.03;3.38;;;;;;;17.19;55.99;94479.25;4211475;28;20082;-60
2022/09/13 06:23:30;;;;;;;4.72;3.55;;;;;;;17.10;56.01;94483.13;4211948;28;20142;-58
2022/09/13 06:25:32;;;;;;;8.55;3.72;;;;;;;17.19;55.90;94481.09;4211299;28;20105;-60
2022/09/13 06:27:33;;;;;;;8.60;3.05;;;;;;;17.10;56.26;94477.84;4212405;28;20079;-60
2022/09/13 06:29:36;;;;;;;4.93;3.10;;;;;;;17.14;56.11;94480.88;4212683;28;20063;-60
2022/09/13 06:31:42;;;;;;;4.90;3.70;;;;;;;17.28;56.07;94479.84;4212980;28;20043;-58
2022/09/13 06:33:44;;;;;;;6.70;3.67;;;;;;;16.88;56.90;94489.63;4212869;28;20117;-62
2022/09/13 06:35:46;;;;;;;5.60;3.15;;;;;;;16.83;56.97;94490.25;4210985;28;20155;-61
2022/09/13 06:37:47;;;;;;;5.63;3.70;;;;;;;16.82;57.06;94480.69;4211649;28;20429;-61
2022/09/13 06:39:49;;;;;;;5.05;3.42;;;;;;;16.82;56.86;94488.63;4210138;28;20059;-61
2022/09/13 06:41:50;;;;;;;6.40;3.70;;;;;;;17.02;56.48;94485.97;4211610;28;20483;-57
2022/09/13 06:43:54;;;;;;;4.85;3.17;;;;;;;17.05;56.15;94490.84;4214972;28;20066;-60
2022/09/13 06:46:00;;;;;;;;;;;;;;;17.16;56.22;94490.25;4208235;28;20139;-59
2022/09/13 06:48:02;;;;;;;6.80;3.60;;;;;;;17.10;56.48;94493.72;4198171;28;20008;-59
2022/09/13 06:50:04;;;;;;;4.90;3.38;;;;;;;17.13;56.09;94498.59;4199909;28;20491;-61
2022/09/13 06:52:06;;;;;;;4.95;3.47;;;;;;;17.16;56.22;94502.66;4211553;28;20553;-60
2022/09/13 06:54:08;;;;;;;13.02;3.83;;;;;;;16.94;57.16;94500.22;4212574;28;20508;-60
2022/09/13 06:56:12;;;;;;;10.63;3.80;;;;;;;16.78;57.89;94497.94;4197284;28;20413;-58
2022/09/13 06:58:14;;;;;;;6.55;3.70;;;;;;;16.79;57.81;94505.66;4212448;28;20131;-60
2022/09/13 07:00:16;;;;;;;5.20;3.75;;;;;;;16.91;57.95;94505.13;4203622;28;20048;-59
2022/09/13 07:02:17;;;;;;;6.57;3.35;;;;;;;16.70;56.79;94508.72;4208764;28;20044;-60
2022/09/13 07:04:19;;;;;;;4.72;3.17;;;;;;;16.45;57.70;94513.75;4197590;28;20090;-60
2022/09/13 07:06:28;;;;;;;5.47;3.03;;;;;;;16.38;57.88;94509.25;4195883;28;20091;-61
2022/09/13 07:08:30;;;;;;;7.63;3.92;;;;;;;16.70;57.34;94514.81;4206220;28;20055;-61
2022/09/13 07:10:32;;;;;;;4.95;3.40;;;;;;;16.93;55.95;94518.97;4197828;28;20127;-59
2022/09/13 07:12:34;;;;;;;5.78;3.15;;;;;;;17.21;55.36;94521.41;4209985;28;20496;-60
2022/09/13 07:14:35;;;;;;;5.68;3.35;;;;;;;17.24;54.90;94514.88;4212089;28;20143;-60
2022/09/13 07:16:37;;;;;;;11.68;4.75;;;;;;;17.40;54.51;94515.28;4207348;28;20044;-59
2022/09/13 07:18:39;;;;;;;4.93;2.70;;;;;;;17.64;54.59;94522.75;4195740;28;20048;-58
2022/09/13 07:20:40;;;;;;;3.92;2.60;;;;;;;17.34;54.11;94521.38;4207345;28;20052;-59
2022/09/13 07:22:42;;;;;;;3.45;2.97;;;;;;;17.32;54.53;94525.25;4211737;28;20135;-60
2022/09/13 07:24:43;;;;;;;4.30;3.22;;;;;;;16.93;55.32;94524.25;4210961;28;20044;-61
2022/09/13 07:26:46;;;;;;;3.90;2.63;;;;;;;16.96;54.43;94524.63;4211828;28;20059;-60
2022/09/13 07:28:50;;;;;;;3.28;2.47;;;;;;;17.25;54.31;94509.38;4199238;28;20076;-60
2022/09/13 07:30:52;;;;;;;3.42;2.92;;;;;;;17.56;53.94;94515.84;4208622;28;20048;-60
2022/09/13 07:32:54;;;;;;;9.35;5.18;;;;;;;17.53;53.35;94519.75;4201328;28;20051;-59
2022/09/13 07:34:56;;;;;;;7.55;3.63;;;;;;;17.49;53.65;94526.47;4211089;28;20044;-58
2022/09/13 07:36:57;;;;;;;5.95;3.88;;;;;;;17.52;53.51;94514.63;4211764;28;20144;-59
2022/09/13 07:38:59;;;;;;;8.30;4.07;;;;;;;17.66;53.25;94529.50;4210305;28;20078;-61
2022/09/13 07:41:01;;;;;;;5.03;2.88;;;;;;;17.79;53.16;94518.06;4209081;28;20085;-62
2022/09/13 07:43:03;;;;;;;7.75;2.90;;;;;;;18.05;52.22;94521.66;4210576;28;20075;-61
2022/09/13 07:45:05;;;;;;;5.55;2.90;;;;;;;18.03;51.15;94529.03;4199947;28;20071;-59
2022/09/13 07:47:07;;;;;;;3.90;2.80;;;;;;;18.13;50.65;94529.38;4214432;28;20696;-60
2022/09/13 07:49:13;;;;;;;3.55;2.28;;;;;;;18.24;50.63;94528.75;4218184;28;20052;-61
2022/09/13 07:51:17;;;;;;;4.18;2.45;;;;;;;18.47;50.08;94522.09;4209979;28;20083;-59
2022/09/13 07:53:19;;;;;;;3.67;2.30;;;;;;;18.56;49.96;94521.66;4212057;28;20587;-59
2022/09/13 07:55:21;;;;;;;5.40;3.40;;;;;;;18.20;50.51;94531.00;4209783;28;20135;-60
2022/09/13 07:57:22;;;;;;;6.85;3.35;;;;;;;17.92;51.71;94531.28;4205826;28;20055;-62
2022/09/13 07:59:24;;;;;;;6.72;3.15;;;;;;;17.88;51.81;94535.38;4203240;28;20401;-59
2022/09/13 08:01:33;;;;;;;3.35;2.10;;;;;;;18.15;49.93;94524.69;4211720;28;20151;-67
2022/09/13 08:03:35;;;;;;;8.07;4.82;;;;;;;17.98;50.73;94534.94;4211560;28;20087;-64
2022/09/13 08:05:40;;;;;;;4.75;2.83;;;;;;;17.76;49.82;94529.06;4210956;28;20086;-67
2022/09/13 08:07:42;;;;;;;6.75;3.08;;;;;;;17.66;51.00;94533.97;4210494;28;20151;-65
2022/09/13 08:09:43;;;;;;;4.57;2.45;;;;;;;17.95;50.46;94535.34;4209586;28;20133;-65
2022/09/13 08:11:47;;;;;;;4.93;2.50;;;;;;;18.30;50.22;94529.72;4209215;28;20129;-67
2022/09/13 08:13:51;;;;;;;3.47;1.92;;;;;;;18.53;48.13;94522.06;4211529;28;20538;-68
2022/09/13 08:15:53;;;;;;;5.30;2.58;;;;;;;18.74;48.07;94525.41;4198177;28;20899;-65
2022/09/13 08:17:54;;;;;;;4.10;2.30;;;;;;;18.12;48.79;94533.88;4210639;28;20052;-67
2022/09/13 08:19:56;;;;;;;10.57;5.03;;;;;;;17.85;50.43;94534.97;4205745;28;20106;-65
2022/09/13 08:21:58;;;;;;;2.97;2.60;;;;;;;18.05;50.52;94534.91;4204197;28;20056;-66
2022/09/13 08:24:00;;;;;;;5.63;3.10;;;;;;;18.30;49.49;94522.56;4207494;28;20048;-67
2022/09/13 08:26:02;;;;;;;3.13;1.88;;;;;;;18.70;48.02;94514.41;4208740;28;20131;-67
2022/09/13 08:28:05;;;;;;;5.05;2.30;;;;;;;18.99;47.56;94499.75;4206109;28;20044;-68
2022/09/13 08:30:08;;;;;;;4.32;2.00;;;;;;;18.57;46.40;94515.31;4204352;28;20130;-66
2022/09/13 08:32:09;;;;;;;8.73;2.67;;;;;;;18.02;48.05;94530.84;4197384;28;20131;-66
2022/09/13 08:34:13;;;;;;;3.25;1.98;;;;;;;17.90;47.84;94520.09;4195233;28;20089;-68
2022/09/13 08:36:17;;;;;;;4.38;2.90;;;;;;;18.11;48.14;94526.97;4201213;28;20048;-67
2022/09/13 08:38:19;;;;;;;5.55;2.10;;;;;;;18.41;46.65;94519.28;4201122;28;20056;-67
2022/09/13 08:40:22;;;;;;;2.67;1.75;;;;;;;18.67;44.84;94512.19;4192998;28;20478;-65
2022/09/13 08:42:37;;;;;;;3.35;2.10;;;;;;;18.98;44.31;94515.91;4202716;28;20076;-65
2022/09/13 08:44:45;;;;;;;5.90;2.13;;;;;;;19.06;43.53;94506.84;4211319;28;20071;-68
2022/09/13 08:46:46;;;;;;;2.90;1.73;;;;;;;18.86;43.26;94513.09;4211961;28;20504;-69
2022/09/13 08:48:50;;;;;;;5.80;1.90;;;;;;;18.83;43.67;94514.34;4211432;28;20140;-69
2022/09/13 08:50:53;;;;;;;3.17;1.70;;;;;;;18.98;43.41;94506.09;4214159;28;20159;-68
2022/09/13 08:53:01;;;;;;;4.15;2.67;;;;;;;18.91;43.96;94504.53;4214371;28;20188;-66
2022/09/13 08:55:20;;;;;;;10.70;2.80;;;;;;;19.26;44.07;94501.38;4212965;28;20197;-67
2022/09/13 08:57:27;;;;;;;7.50;3.53;;;;;;;19.16;44.56;94505.31;4202715;28;20131;-61
2022/09/13 08:59:55;;;;;;;4.30;1.80;;;;;;;19.17;42.86;94500.84;4213939;28;20139;-59
2022/09/13 09:01:59;;;;;;;4.28;1.92;;;;;;;19.36;41.37;94501.69;4194192;28;20135;-62
2022/09/13 09:04:31;;;;;;;2.63;1.70;;;;;;;19.61;40.71;94504.31;4200705;28;20087;-61
2022/09/13 09:06:34;;;;;;;2.25;1.83;;;;;;;20.12;41.02;94497.06;4212900;28;20053;-61
2022/09/13 09:08:46;;;;;;;2.58;1.60;;;;;;;20.31;40.36;94505.84;4214117;28;20051;-62
2022/09/13 09:10:50;;;;;;;4.57;2.20;;;;;;;20.38;40.50;94502.03;4211139;28;20048;-67
2022/09/13 09:12:59;;;;;;;2.90;2.10;;;;;;;19.83;41.34;94505.56;4212875;28;20078;-61
2022/09/13 09:15:13;;;;;;;3.38;2.35;;;;;;;19.92;41.35;94515.88;4212176;28;20048;-62
2022/09/13 09:17:25;;;;;;;3.85;1.58;;;;;;;20.02;41.37;94508.19;4212369;28;20048;-61
2022/09/13 09:19:49;;;;;;;5.40;2.47;;;;;;;20.23;41.27;94510.41;4208580;28;20138;-61
2022/09/13 09:21:50;;;;;;;3.42;2.15;;;;;;;19.79;41.58;94508.88;4203027;28;20079;-58
2022/09/13 09:23:54;;;;;;;3.20;1.80;;;;;;;19.57;39.68;94498.63;4214116;28;20136;-60
2022/09/13 09:26:12;;;;;;;2.55;1.58;;;;;;;19.73;39.96;94507.09;4199787;28;20049;-62
2022/09/13 09:28:16;;;;;;;4.05;1.80;;;;;;;19.53;40.85;94500.13;4212593;28;20075;-60
2022/09/13 09:30:18;;;;;;;4.20;2.20;;;;;;;19.56;40.60;94497.00;4204259;28;20189;-63
2022/09/13 09:32:43;;;;;;;8.98;2.85;;;;;;;19.62;40.98;94496.13;4199787;28;20052;-61
2022/09/13 09:34:55;;;;;;;4.18;1.80;;;;;;;19.86;41.24;94496.31;4207720;28;20071;-63
2022/09/13 09:37:05;;;;;;;3.17;1.65;;;;;;;20.05;40.41;94492.63;4198623;28;20052;-60
2022/09/13 09:39:10;;;;;;;2.50;1.65;;;;;;;20.22;40.20;94492.03;4211971;28;20504;-62
2022/09/13 09:41:21;;;;;;;2.10;1.50;;;;;;;20.36;39.91;94490.81;4205058;28;20106;-61
2022/09/13 09:43:27;;;;;;;6.57;1.92;;;;;;;20.38;40.17;94485.28;4211677;28;20139;-63
2022/09/13 09:45:33;;;;;;;4.57;3.10;;;;;;;19.81;41.46;94480.22;4213697;28;20054;-60
2022/09/13 09:47:42;;;;;;;4.40;2.03;;;;;;;19.81;41.01;94485.53;4208526;28;20079;-59
2022/09/13 09:50:08;;;;;;;2.80;1.60;;;;;;;20.19;40.87;94484.47;4198723;28;20056;-60
2022/09/13 09:52:14;;;;;;;2.38;1.67;;;;;;;20.32;40.13;94476.31;4204193;28;20044;-61
2022/09/13 09:54:16;;;;;;;6.18;3.00;;;;;;;19.80;41.72;94478.59;4212381;28;20056;-62
2022/09/13 09:56:23;;;;;;;3.72;2.33;;;;;;;19.50;42.99;94478.47;4195616;28;20054;-61